Time;durP1;ratioP1;P1;durP2;ratioP2;P2;SDS_P1;SDS_P2;PMS_P1;PMS_P2;Temp;Humidity;BMP_temperature;BMP_pressure;BME280_temperature;BME280_humidity;BME280_pressure;Samples;Min_cycle;Max_cycle;Signal;HPM_P1;HPM_P2
2022/05/19 00:01:59;;;;;;;1.83;1.50;;;;;;;;;;5050469;28;20096;-72
2022/05/19 00:04:25;;;;;;;2.13;1.38;;;;;;;;;;5048718;28;20144;-71
2022/05/19 00:06:50;;;;;;;1.42;1.25;;;;;;;;;;5043533;28;20212;-72
2022/05/19 00:09:16;;;;;;;2.17;1.63;;;;;;;;;;5033390;28;20033;-71
2022/05/19 00:11:42;;;;;;;1.52;1.27;;;;;;;;;;5030518;28;20028;-72
2022/05/19 00:14:08;;;;;;;1.55;1.45;;;;;;;;;;5030197;28;20044;-72
2022/05/19 00:16:33;;;;;;;1.85;1.60;;;;;;;;;;5030156;28;20030;-71
2022/05/19 00:18:59;;;;;;;1.88;1.65;;;;;;;;;;5029945;28;20084;-74
2022/05/19 00:21:24;;;;;;;2.33;1.70;;;;;;;;;;5029797;28;20080;-71
2022/05/19 00:23:49;;;;;;;1.70;1.60;;;;;;;;;;5029123;28;20456;-72
2022/05/19 00:26:15;;;;;;;1.83;1.65;;;;;;;;;;5029974;28;20026;-71
2022/05/19 00:28:40;;;;;;;1.67;1.40;;;;;;;;;;5030116;28;20026;-72
2022/05/19 00:31:06;;;;;;;1.70;1.60;;;;;;;;;;5030057;28;20026;-72
2022/05/19 00:33:33;;;;;;;1.42;1.30;;;;;;;;;;5029600;28;20025;-71
2022/05/19 00:36:05;;;;;;;1.40;1.25;;;;;;;;;;5029974;28;20021;-74
2022/05/19 00:38:30;;;;;;;1.88;1.63;;;;;;;;;;5029050;28;20029;-72
2022/05/19 00:40:58;;;;;;;1.80;1.65;;;;;;;;;;5030232;28;20036;-73
2022/05/19 00:43:30;;;;;;;6.28;1.90;;;;;;;;;;5029792;28;20127;-73
2022/05/19 00:46:03;;;;;;;1.55;1.45;;;;;;;;;;5029781;28;20026;-72
2022/05/19 00:48:36;;;;;;;2.03;1.65;;;;;;;;;;5029927;28;20048;-72
2022/05/19 00:51:02;;;;;;;1.70;1.60;;;;;;;;;;5029508;28;20437;-73
2022/05/19 00:53:28;;;;;;;2.28;1.73;;;;;;;;;;5027471;28;20049;-72
2022/05/19 00:55:55;;;;;;;1.45;1.38;;;;;;;;;;5016015;28;20014;-72
2022/05/19 00:58:23;;;;;;;1.90;1.60;;;;;;;;;;5015353;28;20021;-72
2022/05/19 01:00:49;;;;;;;1.40;1.27;;;;;;;;;;5016421;28;20113;-73
2022/05/19 01:03:15;;;;;;;1.48;1.17;;;;;;;;;;5015979;28;20501;-72
2022/05/19 01:05:52;;;;;;;1.70;1.58;;;;;;;;;;5016337;28;20449;-72
2022/05/19 01:08:25;;;;;;;2.15;1.40;;;;;;;;;;5016247;28;20028;-71
2022/05/19 01:10:52;;;;;;;1.67;1.40;;;;;;;;;;5015999;28;20041;-71
2022/05/19 01:13:18;;;;;;;1.73;1.20;;;;;;;;;;5016154;28;20026;-71
2022/05/19 01:15:44;;;;;;;1.75;1.52;;;;;;;;;;5016236;28;20028;-71
2022/05/19 01:18:11;;;;;;;2.45;1.65;;;;;;;;;;5016001;28;20037;-72
2022/05/19 01:20:38;;;;;;;1.40;1.30;;;;;;;;;;5016138;28;20113;-72
2022/05/19 01:23:18;;;;;;;1.48;1.38;;;;;;;;;;5015164;28;20061;-71
2022/05/19 01:25:57;;;;;;;1.30;1.20;;;;;;;;;;5015989;28;20022;-72
2022/05/19 01:28:22;;;;;;;1.23;1.13;;;;;;;;;;5015670;28;20028;-72
2022/05/19 01:30:47;;;;;;;1.42;1.33;;;;;;;;;;5015724;28;20022;-70
2022/05/19 01:33:13;;;;;;;2.40;1.60;;;;;;;;;;5015733;28;20112;-72
2022/05/19 01:35:38;;;;;;;1.77;1.40;;;;;;;;;;5015858;28;20032;-71
2022/05/19 01:38:07;;;;;;;1.48;1.35;;;;;;;;;;5015220;28;20073;-72
2022/05/19 01:40:42;;;;;;;3.25;1.25;;;;;;;;;;5014838;28;20032;-71
2022/05/19 01:43:10;;;;;;;1.33;1.10;;;;;;;;;;5015182;28;20097;-71
2022/05/19 01:45:57;;;;;;;1.55;1.45;;;;;;;;;;5015429;28;20037;-70
2022/05/19 01:48:36;;;;;;;1.75;1.50;;;;;;;;;;5015483;28;20022;-70
2022/05/19 01:51:21;;;;;;;1.13;1.13;;;;;;;;;;5015083;28;20025;-71
2022/05/19 01:53:49;;;;;;;1.55;1.45;;;;;;;;;;5015386;28;20078;-71
2022/05/19 01:56:19;;;;;;;1.25;1.15;;;;;;;;;;5015351;28;20025;-70
2022/05/19 01:58:44;;;;;;;3.80;1.23;;;;;;;;;;5015056;28;20413;-70
2022/05/19 02:01:09;;;;;;;1.88;1.38;;;;;;;;;;5014949;28;20038;-70
2022/05/19 02:03:41;;;;;;;2.22;1.30;;;;;;;;;;5015248;28;20042;-70
2022/05/19 02:06:11;;;;;;;1.75;1.20;;;;;;;;;;5014090;28;20032;-71
2022/05/19 02:08:41;;;;;;;2.03;1.45;;;;;;;;;;5015180;28;20318;-71
2022/05/19 02:11:09;;;;;;;;;;;;;;;;;;5015806;28;20049;-70
2022/05/19 02:13:34;;;;;;;1.50;1.40;;;;;;;;;;5015139;28;20232;-71
2022/05/19 02:16:01;;;;;;;2.80;1.20;;;;;;;;;;5015004;28;20017;-70
2022/05/19 02:18:27;;;;;;;1.52;1.42;;;;;;;;;;5014654;28;20017;-70
2022/05/19 02:20:54;;;;;;;1.88;1.33;;;;;;;;;;5014737;28;20018;-71
2022/05/19 02:23:19;;;;;;;1.30;1.20;;;;;;;;;;5014787;28;20030;-72
2022/05/19 02:25:46;;;;;;;1.50;1.30;;;;;;;;;;5014356;28;20037;-72
2022/05/19 02:28:22;;;;;;;2.10;1.38;;;;;;;;;;5014611;28;20160;-71
2022/05/19 02:30:47;;;;;;;1.40;1.30;;;;;;;;;;5013815;28;20025;-70
2022/05/19 02:33:13;;;;;;;1.85;1.35;;;;;;;;;;5014673;28;20058;-71
2022/05/19 02:35:39;;;;;;;1.38;1.27;;;;;;;;;;5014658;28;20022;-71
2022/05/19 02:38:04;;;;;;;1.50;1.40;;;;;;;;;;5014299;28;20203;-72
2022/05/19 02:40:31;;;;;;;1.85;1.40;;;;;;;;;;5014125;28;20030;-71
2022/05/19 02:42:57;;;;;;;1.67;1.50;;;;;;;;;;5014397;28;20022;-71
2022/05/19 02:45:22;;;;;;;1.17;1.08;;;;;;;;;;5014488;28;20030;-71
2022/05/19 02:47:48;;;;;;;1.60;1.50;;;;;;;;;;5014203;28;20014;-71
2022/05/19 02:50:14;;;;;;;1.50;1.40;;;;;;;;;;5014325;28;20172;-71
2022/05/19 02:52:40;;;;;;;1.50;1.40;;;;;;;;;;5014094;28;20416;-71
2022/05/19 02:55:05;;;;;;;1.40;1.30;;;;;;;;;;5013810;28;20028;-71
2022/05/19 02:57:31;;;;;;;1.40;1.30;;;;;;;;;;5014298;28;20032;-71
2022/05/19 02:59:57;;;;;;;1.38;1.27;;;;;;;;;;5014184;28;20421;-71
2022/05/19 03:02:22;;;;;;;2.20;1.40;;;;;;;;;;5013850;28;20092;-71
2022/05/19 03:04:47;;;;;;;1.67;1.58;;;;;;;;;;5013902;28;20034;-71
2022/05/19 03:07:13;;;;;;;2.08;1.45;;;;;;;;;;5014067;28;20026;-71
2022/05/19 03:09:40;;;;;;;1.50;1.40;;;;;;;;;;5014149;28;20045;-70
2022/05/19 03:12:07;;;;;;;1.50;1.40;;;;;;;;;;5013753;28;20109;-71
2022/05/19 03:14:32;;;;;;;1.40;1.30;;;;;;;;;;5019698;28;20065;-70
2022/05/19 03:16:57;;;;;;;3.28;1.38;;;;;;;;;;5018022;28;20413;-70
2022/05/19 03:19:23;;;;;;;1.70;1.33;;;;;;;;;;4980582;28;20054;-70
2022/05/19 03:21:48;;;;;;;1.95;1.63;;;;;;;;;;4956714;28;20019;-73
2022/05/19 03:24:13;;;;;;;1.48;1.38;;;;;;;;;;4959102;28;20398;-70
2022/05/19 03:26:39;;;;;;;1.60;1.35;;;;;;;;;;4956466;28;20033;-68
2022/05/19 03:29:04;;;;;;;1.30;1.20;;;;;;;;;;4948406;28;20070;-70
2022/05/19 03:31:30;;;;;;;1.50;1.35;;;;;;;;;;4957779;28;20468;-71
2022/05/19 03:33:55;;;;;;;2.55;1.67;;;;;;;;;;4946831;28;20931;-69
2022/05/19 03:36:21;;;;;;;1.83;1.55;;;;;;;;;;4947849;28;20023;-75
2022/05/19 03:38:47;;;;;;;1.50;1.40;;;;;;;;;;4953167;28;20058;-68
2022/05/19 03:41:12;;;;;;;2.83;1.90;;;;;;;;;;4950702;28;20481;-70
2022/05/19 03:43:37;;;;;;;1.52;1.42;;;;;;;;;;4958111;28;20031;-69
2022/05/19 03:46:03;;;;;;;2.13;1.40;;;;;;;;;;4954849;28;20046;-68
2022/05/19 03:48:32;;;;;;;2.85;1.40;;;;;;;;;;4957034;28;20517;-68
2022/05/19 03:50:58;;;;;;;1.65;1.55;;;;;;;;;;4956026;28;20086;-67
2022/05/19 03:53:24;;;;;;;2.47;1.40;;;;;;;;;;4953005;28;20043;-68
2022/05/19 03:55:49;;;;;;;2.50;1.50;;;;;;;;;;4948625;28;20032;-69
2022/05/19 03:58:14;;;;;;;2.35;1.60;;;;;;;;;;4947888;28;20034;-70
2022/05/19 04:00:40;;;;;;;1.83;1.50;;;;;;;;;;4947167;28;20046;-68
2022/05/19 04:03:05;;;;;;;1.55;1.45;;;;;;;;;;4947327;28;20393;-73
2022/05/19 04:05:30;;;;;;;1.80;1.60;;;;;;;;;;4947042;28;20982;-70
2022/05/19 04:07:56;;;;;;;3.53;2.40;;;;;;;;;;4950245;28;20157;-68
2022/05/19 04:10:21;;;;;;;2.20;1.58;;;;;;;;;;4948650;28;20085;-71
2022/05/19 04:12:46;;;;;;;2.10;1.80;;;;;;;;;;4956821;28;20150;-71
2022/05/19 04:15:12;;;;;;;1.50;1.33;;;;;;;;;;4956219;28;20465;-70
2022/05/19 04:17:38;;;;;;;2.00;1.60;;;;;;;;;;4958585;28;20030;-69
2022/05/19 04:20:05;;;;;;;1.58;1.48;;;;;;;;;;4953150;28;20027;-67
2022/05/19 04:22:31;;;;;;;2.17;1.65;;;;;;;;;;4947295;28;20031;-67
2022/05/19 04:24:56;;;;;;;2.58;1.77;;;;;;;;;;4955273;28;20448;-66
2022/05/19 04:27:22;;;;;;;1.35;1.23;;;;;;;;;;4951235;28;20042;-66
2022/05/19 04:29:48;;;;;;;2.92;1.60;;;;;;;;;;4959180;28;20034;-66
2022/05/19 04:32:14;;;;;;;2.25;1.40;;;;;;;;;;4963537;28;20113;-68
2022/05/19 04:34:39;;;;;;;1.92;1.50;;;;;;;;;;4956212;28;20030;-69
2022/05/19 04:37:04;;;;;;;1.60;1.50;;;;;;;;;;4952482;28;20037;-72
2022/05/19 04:39:29;;;;;;;1.60;1.50;;;;;;;;;;4951984;28;20030;-72
2022/05/19 04:41:55;;;;;;;2.60;1.50;;;;;;;;;;4952033;28;20062;-71
2022/05/19 04:44:20;;;;;;;3.08;1.70;;;;;;;;;;4951494;28;20045;-70
2022/05/19 04:46:45;;;;;;;3.30;1.50;;;;;;;;;;4950188;28;20049;-72
2022/05/19 04:49:11;;;;;;;3.80;1.70;;;;;;;;;;4949402;28;20110;-73
2022/05/19 04:51:36;;;;;;;2.58;1.70;;;;;;;;;;4950538;28;20185;-74
2022/05/19 04:54:01;;;;;;;1.67;1.58;;;;;;;;;;4950811;28;20073;-69
2022/05/19 04:56:27;;;;;;;1.80;1.65;;;;;;;;;;4948953;28;20361;-69
2022/05/19 04:58:52;;;;;;;2.72;1.80;;;;;;;;;;4951389;28;20035;-71
2022/05/19 05:01:17;;;;;;;2.85;1.52;;;;;;;;;;4951676;28;20060;-67
2022/05/19 05:03:43;;;;;;;1.50;1.40;;;;;;;;;;4958598;28;20034;-67
2022/05/19 05:06:08;;;;;;;2.10;1.70;;;;;;;;;;4957361;28;20046;-69
2022/05/19 05:08:33;;;;;;;1.85;1.73;;;;;;;;;;4958204;28;20078;-71
2022/05/19 05:10:59;;;;;;;1.58;1.48;;;;;;;;;;4954216;28;20497;-69
2022/05/19 05:13:24;;;;;;;3.10;1.52;;;;;;;;;;4958390;28;20562;-71
2022/05/19 05:15:49;;;;;;;1.83;1.50;;;;;;;;;;4959713;28;20067;-70
2022/05/19 05:18:15;;;;;;;2.10;1.58;;;;;;;;;;4958912;28;20034;-70
2022/05/19 05:20:41;;;;;;;3.92;1.77;;;;;;;;;;4959989;28;20018;-71
2022/05/19 05:23:07;;;;;;;1.80;1.60;;;;;;;;;;4955800;28;20393;-74
2022/05/19 05:25:32;;;;;;;2.10;1.60;;;;;;;;;;4954964;28;20030;-71
2022/05/19 05:27:58;;;;;;;1.30;1.20;;;;;;;;;;4951584;28;20030;-67
2022/05/19 05:30:24;;;;;;;1.90;1.50;;;;;;;;;;4958062;28;20051;-71
2022/05/19 05:32:49;;;;;;;2.10;1.30;;;;;;;;;;4960815;28;20041;-70
2022/05/19 05:35:15;;;;;;;2.25;1.63;;;;;;;;;;4955274;28;20034;-67
2022/05/19 05:37:40;;;;;;;2.35;1.77;;;;;;;;;;4960356;28;20476;-70
2022/05/19 05:40:07;;;;;;;3.25;1.58;;;;;;;;;;4959221;28;20060;-69
2022/05/19 05:42:32;;;;;;;2.10;1.90;;;;;;;;;;4958410;28;20027;-72
2022/05/19 05:44:58;;;;;;;1.95;1.60;;;;;;;;;;4955952;28;20093;-68
2022/05/19 05:47:23;;;;;;;2.08;1.60;;;;;;;;;;4958729;28;20031;-69
2022/05/19 05:49:48;;;;;;;1.73;1.63;;;;;;;;;;4958658;28;20447;-68
2022/05/19 05:52:14;;;;;;;2.75;1.80;;;;;;;;;;4956923;28;20038;-67
2022/05/19 05:54:39;;;;;;;6.00;2.80;;;;;;;;;;4949289;28;20042;-69
2022/05/19 05:57:04;;;;;;;4.05;2.17;;;;;;;;;;4951166;28;20150;-69
2022/05/19 05:59:30;;;;;;;3.95;2.08;;;;;;;;;;4962287;28;20093;-75
2022/05/19 06:01:55;;;;;;;2.40;2.20;;;;;;;;;;4960908;28;20030;-72
2022/05/19 06:04:20;;;;;;;4.85;2.30;;;;;;;;;;4956696;28;20151;-73
2022/05/19 06:06:46;;;;;;;3.13;2.20;;;;;;;;;;4949949;28;20034;-70
2022/05/19 06:09:14;;;;;;;2.88;2.10;;;;;;;;;;4958063;28;20035;-69
2022/05/19 06:11:40;;;;;;;2.28;2.05;;;;;;;;;;4958713;28;20015;-70
2022/05/19 06:14:06;;;;;;;1.85;1.75;;;;;;;;;;4960300;28;20042;-74
2022/05/19 06:16:31;;;;;;;1.48;1.35;;;;;;;;;;4959950;28;20097;-71
2022/05/19 06:18:56;;;;;;;1.02;0.95;;;;;;;;;;4959006;28;20200;-71
2022/05/19 06:21:22;;;;;;;1.33;1.23;;;;;;;;;;4958590;28;20358;-70
2022/05/19 06:23:47;;;;;;;1.23;1.13;;;;;;;;;;4962342;28;20457;-70
2022/05/19 06:26:13;;;;;;;1.52;1.20;;;;;;;;;;4961177;28;20793;-75
2022/05/19 06:28:38;;;;;;;1.73;0.90;;;;;;;;;;4957880;28;20041;-73
2022/05/19 06:31:04;;;;;;;1.30;1.20;;;;;;;;;;4958122;28;20035;-71
2022/05/19 06:33:30;;;;;;;2.05;0.90;;;;;;;;;;4960905;28;20023;-70
2022/05/19 06:35:55;;;;;;;0.98;0.88;;;;;;;;;;4958204;28;20090;-69
2022/05/19 06:38:20;;;;;;;1.48;1.00;;;;;;;;;;4958297;28;20027;-71
2022/05/19 06:40:46;;;;;;;1.98;1.20;;;;;;;;;;4957811;28;20334;-70
2022/05/19 06:43:13;;;;;;;1.98;1.10;;;;;;;;;;4959488;28;20308;-73
2022/05/19 06:45:39;;;;;;;1.42;1.17;;;;;;;;;;4957210;28;20026;-70
2022/05/19 06:48:05;;;;;;;1.08;1.00;;;;;;;;;;4955851;28;20034;-70
2022/05/19 06:50:31;;;;;;;1.17;1.08;;;;;;;;;;4961595;28;20109;-70
2022/05/19 06:53:01;;;;;;;2.05;0.88;;;;;;;;;;4957337;28;20430;-73
2022/05/19 06:55:28;;;;;;;0.77;0.77;;;;;;;;;;4959069;28;20031;-71
2022/05/19 06:57:53;;;;;;;1.00;0.90;;;;;;;;;;4957781;28;20050;-71
2022/05/19 07:00:20;;;;;;;1.42;1.25;;;;;;;;;;4959202;28;20027;-75
2022/05/19 07:02:49;;;;;;;3.00;1.20;;;;;;;;;;4960980;28;20038;-73
2022/05/19 07:05:16;;;;;;;1.48;0.93;;;;;;;;;;4956565;28;20035;-71
2022/05/19 07:07:42;;;;;;;0.80;0.80;;;;;;;;;;4959471;28;20045;-70
2022/05/19 07:10:09;;;;;;;1.80;0.82;;;;;;;;;;4956652;28;20026;-74
2022/05/19 07:12:34;;;;;;;0.75;0.75;;;;;;;;;;4960701;28;20027;-72
2022/05/19 07:15:00;;;;;;;0.82;0.82;;;;;;;;;;4960455;28;20036;-70
2022/05/19 07:17:25;;;;;;;1.33;1.00;;;;;;;;;;4956421;28;20033;-73
2022/05/19 07:22:35;;;;;;;0.85;0.85;;;;;;;;;;4956653;28;20058;-69
2022/05/19 07:25:01;;;;;;;1.05;0.98;;;;;;;;;;4957960;28;20030;-69
2022/05/19 07:27:27;;;;;;;1.75;1.65;;;;;;;;;;4958507;28;20015;-72
2022/05/19 07:29:52;;;;;;;1.35;0.90;;;;;;;;;;4958563;28;20035;-69
2022/05/19 07:32:17;;;;;;;1.98;0.93;;;;;;;;;;4956994;28;20035;-76
2022/05/19 07:34:43;;;;;;;1.60;0.90;;;;;;;;;;4955892;28;20031;-70
2022/05/19 07:37:10;;;;;;;1.98;0.90;;;;;;;;;;4959591;28;20126;-71
2022/05/19 07:39:35;;;;;;;2.20;0.95;;;;;;;;;;4959927;28;20027;-69
2022/05/19 07:42:01;;;;;;;1.20;0.90;;;;;;;;;;4957539;28;20031;-73
2022/05/19 07:44:27;;;;;;;0.82;0.70;;;;;;;;;;4956043;28;20061;-69
2022/05/19 07:46:53;;;;;;;0.98;0.70;;;;;;;;;;4962001;28;20122;-75
2022/05/19 07:49:18;;;;;;;1.08;0.70;;;;;;;;;;4956869;28;20122;-69
2022/05/19 07:51:44;;;;;;;0.88;0.55;;;;;;;;;;4961310;28;20345;-73
2022/05/19 07:54:14;;;;;;;1.27;0.88;;;;;;;;;;4958065;28;20051;-68
2022/05/19 07:56:40;;;;;;;0.88;0.70;;;;;;;;;;4957695;28;20031;-69
2022/05/19 07:59:05;;;;;;;1.10;0.93;;;;;;;;;;4959338;28;20472;-70
2022/05/19 08:01:31;;;;;;;0.82;0.70;;;;;;;;;;4959942;28;20030;-68
2022/05/19 08:03:58;;;;;;;0.60;0.60;;;;;;;;;;4960460;28;20374;-69
2022/05/19 08:06:23;;;;;;;1.35;0.90;;;;;;;;;;4962218;28;20029;-70
2022/05/19 08:08:48;;;;;;;0.95;0.70;;;;;;;;;;4962720;28;20031;-70
2022/05/19 08:11:13;;;;;;;0.68;0.60;;;;;;;;;;4961918;28;20350;-76
2022/05/19 08:16:23;;;;;;;1.23;0.65;;;;;;;;;;4962924;28;20055;-73
2022/05/19 08:18:48;;;;;;;0.50;0.50;;;;;;;;;;4962610;28;20023;-70
2022/05/19 08:21:14;;;;;;;0.88;0.65;;;;;;;;;;4961979;28;20034;-70
2022/05/19 08:23:40;;;;;;;2.47;0.77;;;;;;;;;;4962714;28;20049;-69
2022/05/19 08:26:08;;;;;;;1.63;0.60;;;;;;;;;;4963517;28;20035;-73
2022/05/19 08:28:34;;;;;;;0.77;0.43;;;;;;;;;;4963512;28;20530;-69
2022/05/19 08:31:10;;;;;;;0.80;0.77;;;;;;;;;;4961701;28;20121;-70
2022/05/19 08:33:36;;;;;;;1.70;0.70;;;;;;;;;;4964341;28;20745;-70
2022/05/19 08:36:02;;;;;;;2.20;0.80;;;;;;;;;;4961847;28;20038;-69
2022/05/19 08:38:27;;;;;;;0.88;0.60;;;;;;;;;;4960781;28;20027;-68
2022/05/19 08:40:55;;;;;;;0.93;0.43;;;;;;;;;;4959455;28;20027;-70
2022/05/19 08:43:23;;;;;;;1.02;0.65;;;;;;;;;;4960504;28;20504;-72
2022/05/19 08:45:58;;;;;;;0.73;0.60;;;;;;;;;;4960868;28;20077;-71
2022/05/19 08:48:24;;;;;;;0.65;0.65;;;;;;;;;;4961580;28;20053;-70
2022/05/19 08:50:57;;;;;;;0.50;0.50;;;;;;;;;;4961460;28;20030;-70
2022/05/19 08:53:27;;;;;;;1.00;0.60;;;;;;;;;;4961655;28;20974;-71
2022/05/19 08:55:57;;;;;;;0.85;0.60;;;;;;;;;;4957341;28;20023;-71
2022/05/19 08:58:22;;;;;;;;;;;;;;;;;;4959387;28;20077;-72
2022/05/19 09:00:54;;;;;;;0.80;0.80;;;;;;;;;;4961116;28;20305;-70
2022/05/19 09:03:39;;;;;;;0.88;0.60;;;;;;;;;;4961223;28;20031;-72
2022/05/19 09:06:23;;;;;;;1.77;0.57;;;;;;;;;;4962262;28;20045;-71
2022/05/19 09:09:07;;;;;;;1.17;0.65;;;;;;;;;;4959965;28;20035;-70
2022/05/19 09:11:51;;;;;;;0.73;0.70;;;;;;;;;;4962136;28;20031;-70
2022/05/19 09:14:27;;;;;;;2.30;0.68;;;;;;;;;;4960734;28;20030;-72
2022/05/19 09:17:00;;;;;;;1.10;0.80;;;;;;;;;;4962206;28;20035;-75
2022/05/19 09:19:30;;;;;;;2.17;0.82;;;;;;;;;;4959743;28;20023;-72
2022/05/19 09:22:16;;;;;;;0.60;0.60;;;;;;;;;;4962633;28;20150;-72
2022/05/19 09:24:44;;;;;;;1.48;0.80;;;;;;;;;;4961359;28;20050;-70
2022/05/19 09:27:09;;;;;;;1.35;0.60;;;;;;;;;;4961047;28;20031;-70
2022/05/19 09:29:34;;;;;;;1.02;0.50;;;;;;;;;;4961622;28;20365;-74
2022/05/19 09:32:14;;;;;;;2.92;0.73;;;;;;;;;;4959999;28;20457;-71
2022/05/19 09:34:47;;;;;;;1.55;1.08;;;;;;;;;;4960572;28;20082;-71
2022/05/19 09:37:15;;;;;;;1.00;0.85;;;;;;;;;;4963073;28;20035;-75
2022/05/19 09:39:51;;;;;;;5.40;2.58;;;;;;;;;;4962004;28;20150;-71
2022/05/19 09:42:20;;;;;;;0.90;0.85;;;;;;;;;;4959129;28;20096;-76
2022/05/19 09:44:55;;;;;;;0.85;0.85;;;;;;;;;;4960678;28;20038;-70
2022/05/19 09:47:26;;;;;;;2.40;1.00;;;;;;;;;;4959863;28;20039;-69
2022/05/19 09:49:53;;;;;;;1.00;0.70;;;;;;;;;;4961171;28;20464;-69
2022/05/19 09:52:23;;;;;;;1.33;0.70;;;;;;;;;;4960394;28;20041;-70
2022/05/19 09:54:52;;;;;;;1.05;0.70;;;;;;;;;;4960552;28;20337;-71
2022/05/19 09:57:23;;;;;;;0.63;0.63;;;;;;;;;;4961916;28;20141;-71
2022/05/19 09:59:49;;;;;;;0.60;0.52;;;;;;;;;;4959843;28;20034;-71
2022/05/19 10:02:24;;;;;;;0.93;0.55;;;;;;;;;;4960162;28;20070;-71
2022/05/19 10:04:57;;;;;;;1.08;0.70;;;;;;;;;;4961594;28;20085;-72
2022/05/19 10:07:24;;;;;;;2.03;0.80;;;;;;;;;;4960878;28;20089;-71
2022/05/19 10:09:50;;;;;;;1.55;0.90;;;;;;;;;;4961618;28;20030;-71
2022/05/19 10:12:24;;;;;;;2.05;0.80;;;;;;;;;;4960007;28;20026;-70
2022/05/19 10:14:57;;;;;;;0.85;0.60;;;;;;;;;;4961911;28;20049;-76
2022/05/19 10:17:43;;;;;;;1.92;0.70;;;;;;;;;;4961192;28;20165;-70
2022/05/19 10:20:08;;;;;;;0.50;0.50;;;;;;;;;;4957336;28;20501;-70
2022/05/19 10:22:52;;;;;;;1.25;0.60;;;;;;;;;;4959531;28;20031;-70
2022/05/19 10:25:23;;;;;;;1.23;1.02;;;;;;;;;;4958278;28;20039;-74
2022/05/19 10:31:03;;;;;;;2.10;0.93;;;;;;;;;;4960160;28;20347;-73
2022/05/19 10:33:29;;;;;;;0.60;0.60;;;;;;;;;;4957349;28;20764;-69
2022/05/19 10:36:03;;;;;;;0.37;0.37;;;;;;;;;;4960402;28;20027;-72
2022/05/19 10:38:36;;;;;;;1.63;0.60;;;;;;;;;;4955386;28;20257;-74
2022/05/19 10:41:16;;;;;;;2.10;0.80;;;;;;;;;;4956094;28;20033;-70
2022/05/19 10:43:41;;;;;;;1.83;1.50;;;;;;;;;;4959470;28;20042;-73
2022/05/19 10:46:10;;;;;;;2.65;1.58;;;;;;;;;;4958190;28;20035;-72
2022/05/19 10:49:06;;;;;;;1.13;0.80;;;;;;;;;;4956970;28;20081;-72
2022/05/19 10:51:34;;;;;;;0.52;0.52;;;;;;;;;;4923124;28;20042;-71
2022/05/19 10:54:05;;;;;;;0.60;0.60;;;;;;;;;;4959647;28;20066;-73
2022/05/19 10:57:06;;;;;;;0.80;0.80;;;;;;;;;;4959395;28;20026;-73
2022/05/19 10:59:31;;;;;;;0.77;0.47;;;;;;;;;;4943979;28;20035;-73
2022/05/19 11:01:59;;;;;;;0.60;0.60;;;;;;;;;;4953127;28;20047;-72
2022/05/19 11:04:43;;;;;;;1.75;0.90;;;;;;;;;;4957900;28;20643;-70
2022/05/19 11:07:16;;;;;;;2.90;1.10;;;;;;;;;;4960580;28;20124;-72
2022/05/19 11:09:57;;;;;;;1.38;0.75;;;;;;;;;;4959320;28;20362;-73
2022/05/19 11:12:34;;;;;;;0.70;0.70;;;;;;;;;;4959315;28;20030;-71
2022/05/19 11:15:09;;;;;;;5.47;3.30;;;;;;;;;;4960687;28;20019;-74
2022/05/19 11:17:38;;;;;;;5.72;1.85;;;;;;;;;;4957896;28;20155;-74
2022/05/19 11:20:11;;;;;;;1.05;0.82;;;;;;;;;;4950262;28;20030;-74
2022/05/19 11:22:37;;;;;;;0.60;0.60;;;;;;;;;;4958193;28;20362;-70
2022/05/19 11:27:52;;;;;;;1.02;0.50;;;;;;;;;;4960433;28;20117;-70
2022/05/19 11:30:22;;;;;;;0.80;0.65;;;;;;;;;;4956240;28;20020;-76
2022/05/19 11:32:50;;;;;;;1.10;0.65;;;;;;;;;;4955014;28;20038;-74
2022/05/19 11:35:20;;;;;;;2.35;0.70;;;;;;;;;;4951847;28;20169;-71
2022/05/19 11:37:46;;;;;;;0.80;0.65;;;;;;;;;;4950471;28;20026;-71
2022/05/19 11:40:20;;;;;;;2.17;0.75;;;;;;;;;;4955504;28;20113;-71
2022/05/19 11:43:04;;;;;;;0.77;0.70;;;;;;;;;;4959216;28;20118;-72
2022/05/19 11:45:32;;;;;;;0.98;0.68;;;;;;;;;;4947546;28;20399;-74
2022/05/19 11:57:02;;;;;;;0.80;0.70;;;;;;;;;;4958479;28;21152;-70
2022/05/19 11:59:27;;;;;;;2.60;0.60;;;;;;;;;;4950757;28;20604;-72
2022/05/19 12:01:53;;;;;;;1.05;0.70;;;;;;;;;;4946764;28;20039;-71
2022/05/19 12:04:28;;;;;;;0.60;0.60;;;;;;;;;;4947502;28;20022;-73
2022/05/19 12:06:59;;;;;;;0.52;0.52;;;;;;;;;;4947447;28;20146;-72
2022/05/19 12:09:33;;;;;;;0.50;0.50;;;;;;;;;;4958078;28;20030;-71
2022/05/19 12:12:03;;;;;;;0.82;0.75;;;;;;;;;;4957935;28;20349;-70
2022/05/19 12:14:33;;;;;;;1.52;0.60;;;;;;;;;;4957887;28;20031;-71
2022/05/19 12:16:59;;;;;;;1.13;0.75;;;;;;;;;;4954844;28;20195;-70
2022/05/19 12:19:54;;;;;;;0.73;0.55;;;;;;;;;;4959567;28;20456;-68
2022/05/19 12:22:29;;;;;;;1.80;0.70;;;;;;;;;;4973903;28;20393;-71
2022/05/19 12:25:16;;;;;;;1.10;0.70;;;;;;;;;;4960415;28;20031;-68
2022/05/19 12:27:57;;;;;;;1.73;0.65;;;;;;;;;;4955196;28;20042;-66
2022/05/19 12:33:28;;;;;;;2.25;0.90;;;;;;;;;;4947885;28;20057;-74
2022/05/19 12:36:14;;;;;;;2.10;0.90;;;;;;;;;;4951956;28;20038;-75
2022/05/19 12:38:44;;;;;;;0.50;0.50;;;;;;;;;;4947254;28;20047;-70
2022/05/19 12:41:10;;;;;;;2.30;0.73;;;;;;;;;;4956762;28;20023;-72
2022/05/19 12:43:38;;;;;;;0.60;0.57;;;;;;;;;;4946423;28;20051;-69
2022/05/19 12:46:06;;;;;;;0.97;0.97;;;;;;;;;;4947129;28;20062;-75
2022/05/19 12:48:31;;;;;;;1.17;0.63;;;;;;;;;;4953792;28;20031;-71
2022/05/19 12:51:06;;;;;;;0.80;0.40;;;;;;;;;;4959568;28;20426;-68
2022/05/19 12:53:37;;;;;;;0.82;0.82;;;;;;;;;;4961589;28;20055;-69
2022/05/19 12:56:02;;;;;;;0.98;0.47;;;;;;;;;;4958730;28;20023;-70
2022/05/19 12:58:33;;;;;;;1.98;0.73;;;;;;;;;;4950361;28;20285;-74
2022/05/19 13:01:12;;;;;;;0.88;0.70;;;;;;;;;;4951888;28;20045;-74
2022/05/19 13:03:38;;;;;;;0.73;0.60;;;;;;;;;;4952727;28;20038;-68
2022/05/19 13:06:08;;;;;;;1.00;0.60;;;;;;;;;;4951395;28;20031;-68
2022/05/19 13:08:33;;;;;;;1.00;0.68;;;;;;;;;;4956432;28;20077;-71
2022/05/19 13:11:00;;;;;;;0.85;0.80;;;;;;;;;;4958558;28;20030;-68
2022/05/19 13:13:35;;;;;;;0.70;0.70;;;;;;;;;;4954375;28;20100;-68
2022/05/19 13:16:08;;;;;;;1.42;0.77;;;;;;;;;;4956101;28;20249;-70
2022/05/19 13:18:36;;;;;;;1.35;0.80;;;;;;;;;;4986819;28;20108;-71
2022/05/19 13:21:06;;;;;;;3.63;1.00;;;;;;;;;;5002236;28;20372;-74
2022/05/19 13:23:31;;;;;;;1.60;0.90;;;;;;;;;;4997452;28;20450;-76
2022/05/19 13:26:06;;;;;;;0.70;0.70;;;;;;;;;;5011587;28;20296;-72
2022/05/19 13:31:19;;;;;;;1.30;0.85;;;;;;;;;;4995714;28;20097;-69
2022/05/19 13:33:47;;;;;;;0.70;0.68;;;;;;;;;;4981928;28;20054;-70
2022/05/19 13:36:12;;;;;;;1.35;0.80;;;;;;;;;;5001799;28;20407;-70
2022/05/19 13:38:38;;;;;;;2.08;0.60;;;;;;;;;;5010424;28;20064;-71
2022/05/19 13:41:05;;;;;;;0.70;0.70;;;;;;;;;;5004416;28;20452;-70
2022/05/19 13:43:30;;;;;;;0.68;0.68;;;;;;;;;;5001699;28;20149;-75
2022/05/19 13:45:57;;;;;;;1.05;0.68;;;;;;;;;;4996511;28;20388;-71
2022/05/19 13:48:35;;;;;;;3.33;0.90;;;;;;;;;;4990581;28;20041;-70
2022/05/19 13:51:12;;;;;;;0.77;0.77;;;;;;;;;;4997577;28;20455;-77
2022/05/19 13:53:40;;;;;;;1.00;0.60;;;;;;;;;;5000055;28;20049;-71
2022/05/19 13:56:05;;;;;;;1.90;0.95;;;;;;;;;;4992858;28;20092;-75
2022/05/19 13:58:32;;;;;;;1.00;0.82;;;;;;;;;;5001447;28;20034;-72
2022/05/19 14:00:58;;;;;;;0.50;0.50;;;;;;;;;;4990784;28;20022;-68
2022/05/19 14:03:24;;;;;;;0.75;0.73;;;;;;;;;;4996354;28;20037;-69
2022/05/19 14:05:51;;;;;;;1.27;0.70;;;;;;;;;;5002480;28;20036;-71
2022/05/19 14:08:19;;;;;;;0.82;0.60;;;;;;;;;;4994527;28;20314;-74
2022/05/19 14:10:46;;;;;;;0.70;0.57;;;;;;;;;;4979541;28;20083;-74
2022/05/19 14:13:13;;;;;;;1.73;0.80;;;;;;;;;;4991345;28;20107;-74
2022/05/19 14:15:51;;;;;;;2.08;0.95;;;;;;;;;;4990969;28;20038;-76
2022/05/19 14:18:19;;;;;;;1.02;0.93;;;;;;;;;;4993684;28;20022;-71
2022/05/19 14:20:49;;;;;;;1.27;1.02;;;;;;;;;;4990685;28;20058;-70
2022/05/19 14:23:19;;;;;;;1.17;0.70;;;;;;;;;;4993088;28;20041;-71
2022/05/19 14:25:46;;;;;;;0.75;0.73;;;;;;;;;;4992453;28;20029;-71
2022/05/19 14:28:20;;;;;;;3.17;1.27;;;;;;;;;;4984572;28;20108;-77
2022/05/19 14:30:58;;;;;;;1.08;0.93;;;;;;;;;;4990068;28;20117;-72
2022/05/19 14:33:35;;;;;;;2.40;0.80;;;;;;;;;;4993547;28;20034;-71
2022/05/19 14:36:02;;;;;;;1.30;0.93;;;;;;;;;;4994794;28;20033;-72
2022/05/19 14:38:31;;;;;;;1.15;1.05;;;;;;;;;;4992553;28;20036;-77
2022/05/19 14:43:46;;;;;;;2.00;0.95;;;;;;;;;;5002831;28;20059;-70
2022/05/19 14:46:13;;;;;;;2.03;0.90;;;;;;;;;;4990601;28;20038;-69
2022/05/19 14:48:40;;;;;;;1.00;0.90;;;;;;;;;;5003211;28;20017;-73
2022/05/19 14:51:09;;;;;;;0.85;0.70;;;;;;;;;;5007656;28;20025;-69
2022/05/19 14:53:35;;;;;;;0.70;0.70;;;;;;;;;;5011746;28;20370;-75
2022/05/19 14:56:03;;;;;;;1.95;1.00;;;;;;;;;;5010306;28;20044;-73
2022/05/19 14:58:39;;;;;;;1.87;0.80;;;;;;;;;;4992046;28;20083;-69
2022/05/19 15:01:05;;;;;;;1.17;0.77;;;;;;;;;;5013441;28;20022;-73
2022/05/19 15:03:30;;;;;;;0.85;0.77;;;;;;;;;;5012379;28;20099;-72
2022/05/19 15:05:56;;;;;;;2.78;0.85;;;;;;;;;;5010100;28;20041;-74
2022/05/19 15:08:22;;;;;;;1.08;0.85;;;;;;;;;;5005003;28;20021;-71
2022/05/19 15:10:48;;;;;;;1.40;0.85;;;;;;;;;;5009502;28;20064;-77
2022/05/19 15:13:13;;;;;;;1.08;0.93;;;;;;;;;;5012518;28;20160;-76
2022/05/19 15:15:39;;;;;;;2.25;0.80;;;;;;;;;;5015215;28;20025;-74
2022/05/19 15:18:07;;;;;;;2.03;0.90;;;;;;;;;;5010339;28;20026;-76
2022/05/19 15:20:33;;;;;;;1.05;0.88;;;;;;;;;;5008447;28;20163;-73